createdAt,value
2023-07-28T00:01:20.286Z,98603.22
2023-07-28T00:03:48.793Z,98597.03
2023-07-28T00:06:16.006Z,98606.66
2023-07-28T00:08:43.076Z,98611.34
2023-07-28T00:11:11.339Z,98592.38
2023-07-28T00:13:38.321Z,98597.53
2023-07-28T00:16:05.702Z,98599.56
2023-07-28T00:18:32.727Z,98595.16
2023-07-28T00:21:01.378Z,98601.66
2023-07-28T00:23:29.499Z,98607.94
2023-07-28T00:25:56.516Z,98604.06
2023-07-28T00:28:23.619Z,98605.63
2023-07-28T00:30:50.915Z,98606.88
2023-07-28T00:33:18.477Z,98601.91
2023-07-28T00:35:45.674Z,98610.44
2023-07-28T00:38:14.081Z,98610.78
2023-07-28T00:40:41.165Z,98617.25
2023-07-28T00:43:08.211Z,98628.94
2023-07-28T00:45:37.416Z,98627.38
2023-07-28T00:48:08.042Z,98632.06
2023-07-28T00:50:35.329Z,98638.50
2023-07-28T00:53:02.587Z,98630.44
2023-07-28T00:55:31.637Z,98633.97
2023-07-28T00:57:58.691Z,98626.69
2023-07-28T01:00:25.769Z,98633.13
2023-07-28T01:02:52.902Z,98630.25
2023-07-28T01:05:21.111Z,98628.91
2023-07-28T01:07:54.689Z,98634.81
2023-07-28T01:10:27.749Z,98632.19
2023-07-28T01:12:56.238Z,98621.16
2023-07-28T01:15:23.392Z,98628.16
2023-07-28T01:17:50.973Z,98621.66
2023-07-28T01:20:18.576Z,98622.97
2023-07-28T01:23:03.723Z,98628.94
2023-07-28T01:25:44.618Z,98624.28
2023-07-28T01:28:14.366Z,98622.97
2023-07-28T01:30:41.650Z,98628.94
2023-07-28T01:33:09.497Z,98627.91
2023-07-28T01:35:37.749Z,98621.16
2023-07-28T01:38:04.794Z,98626.03
2023-07-28T01:40:31.940Z,98621.56
2023-07-28T01:42:59.549Z,98620.31
2023-07-28T01:45:28.070Z,98628.63
2023-07-28T01:47:55.234Z,98626.84
2023-07-28T01:50:22.384Z,98631.94
2023-07-28T01:52:49.546Z,98639.19
2023-07-28T01:55:16.726Z,98629.59
2023-07-28T01:57:52.497Z,98637.13
2023-07-28T02:00:20.180Z,98636.50
2023-07-28T02:02:49.437Z,98632.59
2023-07-28T02:05:16.537Z,98645.06
2023-07-28T02:07:43.950Z,98641.16
2023-07-28T02:10:11.661Z,98648.16
2023-07-28T02:12:39.130Z,98647.81
2023-07-28T02:15:08.113Z,98650.97
2023-07-28T02:17:35.443Z,98638.50
2023-07-28T02:20:04.844Z,98649.66
2023-07-28T02:22:31.946Z,98653.19
2023-07-28T02:25:02.935Z,98663.56
2023-07-28T02:27:30.323Z,98661.19
2023-07-28T02:29:57.460Z,98665.81
2023-07-28T02:32:24.837Z,98664.50
2023-07-28T02:34:52.000Z,98670.22
2023-07-28T02:37:20.580Z,98665.75
2023-07-28T02:39:47.806Z,98674.81
2023-07-28T02:42:16.200Z,98670.88
2023-07-28T02:44:43.518Z,98667.97
2023-07-28T02:47:11.695Z,98667.19
2023-07-28T02:49:38.699Z,98664.59
2023-07-28T02:52:06.777Z,98666.09
2023-07-28T02:54:35.217Z,98678.28
2023-07-28T02:57:02.439Z,98676.38
2023-07-28T02:59:29.767Z,98677.31
2023-07-28T03:01:58.841Z,98686.66
2023-07-28T03:04:26.229Z,98693.47
2023-07-28T03:07:21.850Z,98701.19
2023-07-28T03:09:56.628Z,98698.34
2023-07-28T03:12:23.842Z,98700.16
2023-07-28T03:14:50.948Z,98703.31
2023-07-28T03:17:18.060Z,98706.22
2023-07-28T03:19:45.245Z,98714.00
2023-07-28T03:22:12.281Z,98713.75
2023-07-28T03:24:39.735Z,98707.78
2023-07-28T03:27:10.676Z,98708.31
2023-07-28T03:29:37.827Z,98701.69
2023-07-28T03:32:06.768Z,98715.50
2023-07-28T03:34:33.771Z,98707.03
2023-07-28T03:37:04.418Z,98714.88
2023-07-28T03:39:32.571Z,98721.38
2023-07-28T03:41:59.916Z,98721.25
2023-07-28T03:44:29.059Z,98721.16
2023-07-28T03:46:56.158Z,98711.19
2023-07-28T03:49:23.564Z,98722.75
2023-07-28T03:51:50.730Z,98722.03
2023-07-28T03:54:17.762Z,98716.69
2023-07-28T03:56:44.890Z,98715.97
2023-07-28T03:59:12.341Z,98729.25
2023-07-28T04:01:41.433Z,98726.81
2023-07-28T04:04:09.907Z,98727.75
2023-07-28T04:06:41.992Z,98727.88
2023-07-28T04:09:09.419Z,98728.81
2023-07-28T04:11:36.644Z,98724.25
2023-07-28T04:14:03.890Z,98733.56
2023-07-28T04:16:31.114Z,98734.56
2023-07-28T04:18:59.785Z,98735.25
2023-07-28T04:21:27.271Z,98732.81
2023-07-28T04:23:54.752Z,98735.63
2023-07-28T04:26:22.157Z,98732.38
2023-07-28T04:28:55.398Z,98737.06
2023-07-28T04:31:22.517Z,98740.09
2023-07-28T04:33:55.312Z,98737.31
2023-07-28T04:36:25.269Z,98742.00
2023-07-28T04:38:52.565Z,98733.66
2023-07-28T04:41:19.682Z,98732.91
2023-07-28T04:43:53.075Z,98743.31
2023-07-28T04:46:21.493Z,98742.22
2023-07-28T04:48:55.220Z,98739.50
2023-07-28T04:51:42.049Z,98748.50
2023-07-28T04:54:29.055Z,98748.44
2023-07-28T04:56:56.400Z,98748.34
2023-07-28T04:59:30.080Z,98741.13
2023-07-28T05:01:58.097Z,98738.16
2023-07-28T05:04:25.714Z,98729.38
2023-07-28T05:06:55.247Z,98723.75
2023-07-28T05:09:22.527Z,98723.09
2023-07-28T05:11:49.567Z,98728.84
2023-07-28T05:14:17.987Z,98727.38
2023-07-28T05:16:45.235Z,98731.34
2023-07-28T05:19:13.446Z,98727.72
2023-07-28T05:21:52.319Z,98735.56
2023-07-28T05:24:24.841Z,98729.91
2023-07-28T05:26:52.229Z,98744.25
2023-07-28T05:29:20.134Z,98735.66
2023-07-28T05:31:48.818Z,98744.50
2023-07-28T05:34:27.183Z,98730.41
2023-07-28T05:36:54.331Z,98736.13
2023-07-28T05:39:26.660Z,98738.41
2023-07-28T05:41:53.811Z,98744.03
2023-07-28T05:44:20.989Z,98737.97
2023-07-28T05:46:49.809Z,98741.50
2023-07-28T05:49:17.540Z,98734.72
2023-07-28T05:51:44.719Z,98737.28
2023-07-28T05:54:17.466Z,98734.06
2023-07-28T05:56:47.559Z,98736.31
2023-07-28T05:59:14.962Z,98730.00
2023-07-28T06:01:42.089Z,98740.56
2023-07-28T06:04:15.039Z,98740.84
2023-07-28T06:06:46.904Z,98728.38
2023-07-28T06:09:15.737Z,98730.03
2023-07-28T06:11:43.778Z,98729.97
2023-07-28T06:14:12.866Z,98737.13
2023-07-28T06:16:41.007Z,98731.94
2023-07-28T06:19:09.668Z,98735.00
2023-07-28T06:21:39.171Z,98735.03
2023-07-28T06:24:07.146Z,98739.59
2023-07-28T06:26:34.731Z,98745.22
2023-07-28T06:29:01.863Z,98735.38
2023-07-28T06:31:30.576Z,98734.34
2023-07-28T06:33:57.798Z,98731.31
2023-07-28T06:36:25.230Z,98734.06
2023-07-28T06:38:54.133Z,98727.56
2023-07-28T06:41:21.169Z,98721.56
2023-07-28T06:43:49.906Z,98717.59
2023-07-28T06:46:16.926Z,98718.97
2023-07-28T06:48:45.394Z,98715.94
2023-07-28T06:51:14.143Z,98716.03
2023-07-28T06:53:42.859Z,98706.97
2023-07-28T06:56:10.207Z,98717.09
2023-07-28T06:58:37.279Z,98722.81
2023-07-28T07:01:04.353Z,98715.94
2023-07-28T07:03:31.636Z,98709.75
2023-07-28T07:06:00.085Z,98718.13
2023-07-28T07:08:28.248Z,98718.81
2023-07-28T07:10:55.418Z,98715.00
2023-07-28T07:13:23.059Z,98709.97
2023-07-28T07:15:50.153Z,98715.47
2023-07-28T07:18:17.305Z,98710.81
2023-07-28T07:20:47.420Z,98717.03
2023-07-28T07:23:15.998Z,98714.09
2023-07-28T07:25:43.191Z,98710.16
2023-07-28T07:28:10.690Z,98709.59
2023-07-28T07:30:37.728Z,98720.59
2023-07-28T07:33:04.749Z,98712.38
2023-07-28T07:35:31.784Z,98716.13
2023-07-28T07:37:58.815Z,98712.31
2023-07-28T07:40:28.966Z,98712.44
2023-07-28T07:42:57.362Z,98707.03
2023-07-28T07:45:24.571Z,98701.91
2023-07-28T07:47:51.698Z,98706.53
2023-07-28T07:50:18.979Z,98706.00
2023-07-28T07:52:46.006Z,98710.88
2023-07-28T07:55:13.174Z,98708.94
2023-07-28T07:57:42.046Z,98695.44
2023-07-28T08:00:10.586Z,98702.81
2023-07-28T08:02:41.087Z,98696.97
2023-07-28T08:05:11.049Z,98697.50
2023-07-28T08:07:38.381Z,98694.78
2023-07-28T08:10:06.238Z,98697.56
2023-07-28T08:12:33.549Z,98700.72
2023-07-28T08:15:02.151Z,98698.41
2023-07-28T08:17:29.479Z,98694.09
2023-07-28T08:19:56.677Z,98688.88
2023-07-28T08:22:23.654Z,98681.25
2023-07-28T08:24:50.786Z,98681.78
2023-07-28T08:27:17.842Z,98676.19
2023-07-28T08:29:45.310Z,98678.91
2023-07-28T08:32:13.793Z,98677.25
2023-07-28T08:34:40.977Z,98677.16
2023-07-28T08:37:09.136Z,98677.91
2023-07-28T08:39:36.187Z,98684.75
2023-07-28T08:42:04.291Z,98676.16
2023-07-28T08:44:34.511Z,98685.28
2023-07-28T08:47:02.071Z,98686.81
2023-07-28T08:49:33.004Z,98688.72
2023-07-28T08:52:01.480Z,98678.34
2023-07-28T08:54:29.057Z,98671.06
2023-07-28T08:56:58.670Z,98679.25
2023-07-28T08:59:28.074Z,98677.91
2023-07-28T09:01:57.460Z,98686.16
2023-07-28T09:04:25.173Z,98682.84
2023-07-28T09:06:53.665Z,98673.81
2023-07-28T09:09:26.343Z,98668.19
2023-07-28T09:11:56.165Z,98681.50
2023-07-28T09:14:26.788Z,98671.38
2023-07-28T09:16:54.551Z,98674.25
2023-07-28T09:19:22.467Z,98671.47
2023-07-28T09:22:01.742Z,98674.13
2023-07-28T09:24:33.432Z,98674.81
2023-07-28T09:27:01.879Z,98670.38
2023-07-28T09:29:29.110Z,98663.56
2023-07-28T09:32:05.411Z,98661.19
2023-07-28T09:34:33.559Z,98655.47
2023-07-28T09:37:02.188Z,98658.09
2023-07-28T09:39:29.422Z,98655.28
2023-07-28T09:41:59.691Z,98651.16
2023-07-28T09:44:27.224Z,98643.00
2023-07-28T09:46:56.140Z,98642.84
2023-07-28T09:49:28.971Z,98642.50
2023-07-28T09:52:01.156Z,98639.06
2023-07-28T09:54:32.150Z,98635.88
2023-07-28T09:57:00.203Z,98638.38
2023-07-28T09:59:39.896Z,98630.75
2023-07-28T10:02:07.220Z,98629.78
2023-07-28T10:04:35.144Z,98625.34
2023-07-28T10:07:03.237Z,98630.84
2023-07-28T10:09:32.542Z,98620.94
2023-07-28T10:12:00.597Z,98621.41
2023-07-28T10:14:30.489Z,98627.41
2023-07-28T10:16:58.546Z,98624.72
2023-07-28T10:19:26.508Z,98620.81
2023-07-28T10:22:01.343Z,98612.31
2023-07-28T10:24:54.671Z,98605.03
2023-07-28T10:27:33.498Z,98608.47
2023-07-28T10:30:02.351Z,98600.66
2023-07-28T10:32:39.191Z,98625.31
2023-07-28T10:35:08.603Z,98610.59
2023-07-28T10:37:36.848Z,98596.63
2023-07-28T10:40:27.922Z,98594.66
2023-07-28T10:42:55.715Z,98593.81
2023-07-28T10:45:26.299Z,98588.34
2023-07-28T10:47:54.165Z,98590.72
2023-07-28T10:50:21.692Z,98590.63
2023-07-28T10:52:48.791Z,98578.88
2023-07-28T10:55:17.024Z,98578.31
2023-07-28T10:57:46.592Z,98575.06
2023-07-28T11:00:16.712Z,98568.06
2023-07-28T11:02:44.298Z,98582.16
2023-07-28T11:05:13.526Z,98568.03
2023-07-28T11:07:43.973Z,98571.22
2023-07-28T11:10:13.008Z,98560.19
2023-07-28T11:12:43.699Z,98565.84
2023-07-28T11:15:15.514Z,98554.63
2023-07-28T11:17:48.638Z,98548.84
2023-07-28T11:20:19.214Z,98544.38
2023-07-28T11:22:48.426Z,98555.13
2023-07-28T11:25:16.246Z,98535.69
2023-07-28T11:27:44.228Z,98541.53
2023-07-28T11:30:14.034Z,98544.31
2023-07-28T11:32:44.515Z,98536.41
2023-07-28T11:35:15.037Z,98535.88
2023-07-28T11:37:43.479Z,98523.09
2023-07-28T11:40:12.522Z,98537.03
2023-07-28T11:42:41.257Z,98539.19
2023-07-28T11:45:11.029Z,98531.56
2023-07-28T11:47:39.607Z,98527.94
2023-07-28T11:50:07.119Z,98525.88
2023-07-28T11:52:38.860Z,98525.28
2023-07-28T11:55:07.573Z,98525.28
2023-07-28T11:57:34.925Z,98527.53
2023-07-28T12:00:01.949Z,98514.84
2023-07-28T12:02:34.398Z,98527.00
2023-07-28T12:05:13.190Z,98512.97
2023-07-28T12:07:40.543Z,98511.91
2023-07-28T12:10:10.234Z,98508.50
2023-07-28T12:20:51.376Z,98505.09
2023-07-28T12:25:50.377Z,98497.78
2023-07-28T12:28:19.882Z,98488.72
2023-07-28T12:30:50.845Z,98490.63
2023-07-28T12:33:22.469Z,98490.44
2023-07-28T12:35:53.154Z,98490.34
2023-07-28T12:48:21.528Z,98465.59
2023-07-28T12:50:49.108Z,98468.91
2023-07-28T12:53:23.548Z,98461.59
2023-07-28T13:03:24.091Z,98455.50
2023-07-28T13:05:51.163Z,98458.28
2023-07-28T13:08:18.175Z,98456.53
2023-07-28T13:13:17.603Z,98446.13
2023-07-28T13:15:44.705Z,98443.63
2023-07-28T13:18:11.926Z,98448.50
2023-07-28T13:20:38.985Z,98442.00
2023-07-28T13:23:05.995Z,98433.09
2023-07-28T13:25:32.965Z,98436.69
2023-07-28T13:28:01.562Z,98436.75
2023-07-28T13:30:30.041Z,98437.41
2023-07-28T13:32:57.623Z,98434.41
2023-07-28T13:35:26.109Z,98438.56
2023-07-28T13:37:53.451Z,98439.34
2023-07-28T13:40:21.094Z,98432.59
2023-07-28T13:42:48.472Z,98428.56
2023-07-28T13:45:16.998Z,98425.91
2023-07-28T13:47:44.336Z,98422.91
2023-07-28T13:50:11.450Z,98411.38
2023-07-28T13:52:38.459Z,98407.19
2023-07-28T13:57:39.046Z,98404.44
2023-07-28T14:00:10.315Z,98401.19
2023-07-28T14:02:40.111Z,98396.75
2023-07-28T14:05:08.284Z,98412.66
2023-07-28T14:07:35.997Z,98406.50
2023-07-28T14:10:06.164Z,98403.84
2023-07-28T14:12:34.618Z,98396.28
2023-07-28T14:15:01.604Z,98393.41
2023-07-28T14:17:28.850Z,98396.91
2023-07-28T14:19:57.304Z,98395.28
2023-07-28T14:22:24.579Z,98400.75
2023-07-28T14:24:51.661Z,98398.88
2023-07-28T14:27:18.756Z,98393.91
2023-07-28T14:29:45.777Z,98388.59
2023-07-28T14:32:12.833Z,98390.50
2023-07-28T14:34:39.822Z,98384.59
2023-07-28T14:37:08.329Z,98391.31
2023-07-28T14:39:35.651Z,98385.16
2023-07-28T14:42:02.692Z,98383.34
2023-07-28T14:44:30.594Z,98385.47
2023-07-28T14:46:57.588Z,98380.78
2023-07-28T14:49:24.888Z,98389.53
2023-07-28T14:51:51.862Z,98378.78
2023-07-28T14:54:20.335Z,98376.81
2023-07-28T14:56:47.451Z,98375.59
2023-07-28T14:59:14.554Z,98377.34
2023-07-28T15:01:42.053Z,98380.41
2023-07-28T15:04:09.090Z,98374.78
2023-07-28T15:06:36.083Z,98371.28
2023-07-28T15:09:03.310Z,98371.28
2023-07-28T15:11:31.702Z,98364.34
2023-07-28T15:13:58.868Z,98374.75
2023-07-28T15:16:25.890Z,98371.75
2023-07-28T15:18:53.023Z,98366.38
2023-07-28T15:21:19.994Z,98372.00
2023-07-28T15:23:47.306Z,98366.28
2023-07-28T15:26:14.365Z,98357.66
2023-07-28T15:28:42.795Z,98366.13
2023-07-28T15:31:09.819Z,98372.09
2023-07-28T15:33:37.029Z,98369.06
2023-07-28T15:36:04.445Z,98376.47
2023-07-28T15:38:31.522Z,98376.47
2023-07-28T15:40:59.061Z,98369.44
2023-07-28T15:43:26.352Z,98366.38
2023-07-28T15:45:56.302Z,98364.50
2023-07-28T15:48:23.721Z,98363.97
2023-07-28T15:50:52.973Z,98358.22
2023-07-28T15:53:20.129Z,98362.88
2023-07-28T15:55:47.377Z,98354.06
2023-07-28T15:58:14.405Z,98361.75
2023-07-28T16:00:44.222Z,98359.34
2023-07-28T16:03:14.333Z,98373.66
2023-07-28T16:05:41.530Z,98366.63
2023-07-28T16:08:09.331Z,98369.06
2023-07-28T16:10:37.069Z,98371.91
2023-07-28T16:13:04.094Z,98369.81
2023-07-28T16:15:31.309Z,98364.47
2023-07-28T16:17:58.518Z,98372.63
2023-07-28T16:20:26.993Z,98373.81
2023-07-28T16:22:54.034Z,98377.63
2023-07-28T16:25:21.080Z,98376.03
2023-07-28T16:27:48.121Z,98377.34
2023-07-28T16:30:15.287Z,98370.72
2023-07-28T16:32:43.151Z,98376.38
2023-07-28T16:35:10.175Z,98375.81
2023-07-28T16:37:38.583Z,98366.75
2023-07-28T16:40:07.281Z,98379.22
2023-07-28T16:42:34.373Z,98366.88
2023-07-28T16:45:01.374Z,98365.06
2023-07-28T16:47:29.314Z,98361.53
2023-07-28T16:49:56.345Z,98363.25
2023-07-28T16:52:23.908Z,98358.34
2023-07-28T16:54:52.389Z,98358.72
2023-07-28T16:57:19.446Z,98363.72
2023-07-28T16:59:46.535Z,98365.19
2023-07-28T17:02:13.578Z,98358.84
2023-07-28T17:04:40.672Z,98362.47
2023-07-28T17:07:07.947Z,98355.50
2023-07-28T17:09:34.960Z,98370.28
2023-07-28T17:12:03.772Z,98372.13
2023-07-28T17:14:30.851Z,98371.53
2023-07-28T17:16:57.916Z,98374.50
2023-07-28T17:19:24.961Z,98368.50
2023-07-28T17:21:52.068Z,98376.88
2023-07-28T17:24:19.281Z,98373.97
2023-07-28T17:26:46.649Z,98369.34
2023-07-28T17:29:16.451Z,98384.84
2023-07-28T17:31:43.693Z,98388.09
2023-07-28T17:34:10.850Z,98380.22
2023-07-28T17:36:37.925Z,98375.25
2023-07-28T17:39:04.960Z,98381.91
2023-07-28T17:41:32.150Z,98384.06
2023-07-28T17:43:59.334Z,98388.19
2023-07-28T17:46:27.938Z,98390.81
2023-07-28T17:48:54.931Z,98391.88
2023-07-28T17:51:22.136Z,98390.94
2023-07-28T17:53:49.123Z,98396.78
2023-07-28T17:56:17.429Z,98397.53
2023-07-28T17:58:44.970Z,98404.56
2023-07-28T18:01:12.011Z,98399.13
2023-07-28T18:03:41.221Z,98399.22
2023-07-28T18:06:08.312Z,98399.31
2023-07-28T18:08:35.295Z,98385.94
2023-07-28T18:11:02.445Z,98388.34
2023-07-28T18:13:29.461Z,98387.78
2023-07-28T18:15:56.444Z,98396.31
2023-07-28T18:18:23.495Z,98401.34
2023-07-28T18:20:52.038Z,98406.31
2023-07-28T18:23:19.581Z,98409.75
2023-07-28T18:25:46.590Z,98402.06
2023-07-28T18:28:13.659Z,98407.22
2023-07-28T18:30:40.654Z,98407.63
2023-07-28T18:33:10.659Z,98405.72
2023-07-28T18:35:37.695Z,98412.13
2023-07-28T18:38:06.061Z,98406.50
2023-07-28T18:40:33.060Z,98417.84
2023-07-28T18:43:02.528Z,98423.78
2023-07-28T18:45:29.524Z,98422.44
2023-07-28T18:47:56.881Z,98430.22
2023-07-28T18:50:23.966Z,98429.94
2023-07-28T18:52:51.063Z,98432.91
2023-07-28T18:55:19.731Z,98428.34
2023-07-28T18:57:46.844Z,98435.50
2023-07-28T19:00:14.239Z,98434.41
2023-07-28T19:02:41.839Z,98435.84
2023-07-28T19:05:12.704Z,98445.88
2023-07-28T19:07:39.890Z,98440.69
2023-07-28T19:10:07.916Z,98443.47
2023-07-28T19:12:36.271Z,98441.47
2023-07-28T19:15:03.517Z,98449.97
2023-07-28T19:17:30.743Z,98449.75
2023-07-28T19:19:57.807Z,98453.56
2023-07-28T19:22:25.111Z,98447.91
2023-07-28T19:24:52.225Z,98450.06
2023-07-28T19:27:19.520Z,98451.88
2023-07-28T19:29:47.812Z,98454.53
2023-07-28T19:32:15.503Z,98451.81
2023-07-28T19:34:42.517Z,98453.19
2023-07-28T19:37:09.597Z,98451.66
2023-07-28T19:39:36.625Z,98454.84
2023-07-28T19:42:04.084Z,98454.41
2023-07-28T19:44:41.826Z,98453.47
2023-07-28T19:47:10.977Z,98448.56
2023-07-28T19:49:37.989Z,98453.84
2023-07-28T19:52:05.819Z,98454.69
2023-07-28T19:54:34.342Z,98460.19
2023-07-28T19:57:02.226Z,98469.63
2023-07-28T19:59:29.241Z,98467.31
2023-07-28T20:01:56.247Z,98469.47
2023-07-28T20:04:27.090Z,98469.53
2023-07-28T20:06:54.419Z,98464.94
2023-07-28T20:09:27.893Z,98461.41
2023-07-28T20:11:55.073Z,98478.16
2023-07-28T20:14:22.166Z,98472.72
2023-07-28T20:16:49.187Z,98466.47
2023-07-28T20:19:17.318Z,98466.28
2023-07-28T20:21:45.841Z,98459.28
2023-07-28T20:24:13.107Z,98468.97
2023-07-28T20:26:40.143Z,98463.50
2023-07-28T20:29:08.747Z,98471.63
2023-07-28T20:31:36.016Z,98475.31
2023-07-28T20:34:03.294Z,98479.00
2023-07-28T20:36:30.895Z,98481.59
2023-07-28T20:38:59.583Z,98483.25
2023-07-28T20:41:26.736Z,98482.19
2023-07-28T20:43:55.054Z,98487.41
2023-07-28T20:46:22.324Z,98484.28
2023-07-28T20:48:49.398Z,98487.94
2023-07-28T20:51:16.477Z,98498.38
2023-07-28T20:53:43.533Z,98495.56
2023-07-28T20:56:13.396Z,98490.06
2023-07-28T20:58:40.749Z,98493.25
2023-07-28T21:01:07.873Z,98499.03
2023-07-28T21:03:35.009Z,98492.28
2023-07-28T21:06:02.183Z,98488.66
2023-07-28T21:08:29.183Z,98492.31
2023-07-28T21:10:57.043Z,98485.81
2023-07-28T21:13:25.519Z,98495.16
2023-07-28T21:15:54.078Z,98488.69
2023-07-28T21:18:22.422Z,98493.66
2023-07-28T21:20:50.372Z,98494.97
2023-07-28T21:23:17.366Z,98488.69
2023-07-28T21:25:44.418Z,98485.06
2023-07-28T21:28:11.465Z,98488.72
2023-07-28T21:30:39.965Z,98491.59
2023-07-28T21:33:07.864Z,98497.06
2023-07-28T21:35:35.072Z,98499.41
2023-07-28T21:38:02.096Z,98496.03
2023-07-28T21:40:29.169Z,98503.34
2023-07-28T21:42:56.198Z,98488.50
2023-07-28T21:45:23.168Z,98488.75
2023-07-28T21:47:51.862Z,98488.78
2023-07-28T21:50:18.900Z,98491.91
2023-07-28T21:52:45.906Z,98496.56
2023-07-28T21:55:12.936Z,98491.63
2023-07-28T21:57:40.010Z,98490.84
2023-07-28T22:00:12.353Z,98484.59
2023-07-28T22:02:40.163Z,98487.97
2023-07-28T22:05:09.766Z,98495.00
2023-07-28T22:07:37.029Z,98489.81
2023-07-28T22:10:06.650Z,98486.69
2023-07-28T22:12:34.346Z,98480.97
2023-07-28T22:15:02.479Z,98484.81
2023-07-28T22:17:32.618Z,98487.16
2023-07-28T22:19:59.858Z,98491.31
2023-07-28T22:22:28.363Z,98492.63
2023-07-28T22:24:55.353Z,98488.69
2023-07-28T22:27:22.311Z,98477.78
2023-07-28T22:29:52.028Z,98478.03
2023-07-28T22:32:19.086Z,98483.75
2023-07-28T22:34:46.331Z,98488.97
2023-07-28T22:37:13.784Z,98483.22
2023-07-28T22:39:42.601Z,98487.13
2023-07-28T22:42:10.075Z,98481.66
2023-07-28T22:44:37.209Z,98482.94
2023-07-28T22:47:04.626Z,98480.34
2023-07-28T22:49:31.677Z,98472.81
2023-07-28T22:51:58.724Z,98471.97
2023-07-28T22:54:25.847Z,98480.56
2023-07-28T22:56:54.270Z,98478.22
2023-07-28T22:59:21.378Z,98478.22
2023-07-28T23:01:48.529Z,98479.25
2023-07-28T23:04:15.778Z,98468.34
2023-07-28T23:06:42.840Z,98470.91
2023-07-28T23:09:09.975Z,98475.06
2023-07-28T23:11:37.002Z,98482.34
2023-07-28T23:14:05.489Z,98472.16
2023-07-28T23:16:32.846Z,98463.56
2023-07-28T23:18:59.875Z,98458.88
2023-07-28T23:21:26.911Z,98459.38
2023-07-28T23:23:56.224Z,98465.88
2023-07-28T23:26:23.362Z,98459.91
2023-07-28T23:28:51.488Z,98457.00
2023-07-28T23:31:20.089Z,98460.09
2023-07-28T23:33:47.215Z,98453.34
2023-07-28T23:36:15.342Z,98449.69
2023-07-28T23:38:42.389Z,98455.16
2023-07-28T23:41:09.466Z,98455.16
2023-07-28T23:43:36.533Z,98448.09
2023-07-28T23:46:03.732Z,98464.97
2023-07-28T23:48:32.329Z,98459.50
2023-07-28T23:50:59.621Z,98464.94
2023-07-28T23:53:30.062Z,98458.19
2023-07-28T23:55:57.249Z,98460.00
2023-07-28T23:58:24.281Z,98463.88
